Airfield :
LOGIN :

Register | Disclaimer

   EN    FR    IT 

 










Legend :    VFR   Marginal VFR   IFR   Intensive IFR   Very Intensive IFR
Visi :
Ceiling :
>= 8 km
>= 3000ft
5 to 8 km
1000 to 3000 ft
1500m to 5 km
500 to 1000 ft
800 to 1500m
200 to 500 ft
< 800m
< 200 ft
Symbols :   Thunderstorms  Fog  Heavy snow  Heavy precipitations  Wind > 20 kt
SIGMETs :     Misc.  Thunderstorms  Icing  Turbulence  Mountain Waves  Volcanic Ashes







- Airport Elevation : 423 ft
- IATA code : PIS
- Download approach charts


LFBI - Poitiers

CURRENT METAR :
  • 251430Z AUTO 22003KT 160V290 CAVOK 23/14 Q1018 NOSIG

EXPIRED METARs :
  • 251400Z AUTO 00000KT 9999 SCT035 BKN048 BKN068 22/13 Q1018 TEMPO 2000 -TSRA BKN012CB
  • 251330Z AUTO VRB02KT 9999 FEW034 BKN076 22/13 Q1018 TEMPO 2000 -TSRA BKN012CB
  • 251300Z AUTO VRB02KT 9999 SCT032 OVC068 21/13 Q1019 TEMPO 2000 -TSRA BKN012CB
  • 251230Z AUTO VRB03KT 9999 FEW024 BKN068 21/13 Q1019 TEMPO 2000 -TSRA BKN012CB
  • 251200Z AUTO 13003KT 060V180 9999 SCT022 BKN080 BKN230 20/14 Q1019 TEMPO 2000 -TSRA BKN012CB

TAF TAF LFBI
Valid from the 25 at 12:00 until the 26 at 12:00 UTC


251100Z 2512/2612 14005KT 9999 SCT015 BKN050
TEMPO 2513/2515 4000 RA BKN012TCU
PROB30
TEMPO 2513/2515 2000 -TSRA BKN012CB
BECMG 2515/2517 28005KT
BECMG 2523/2601 BKN010
PROB30 2601/2608 BKN003
BECMG 2608/2610 BKN012
No reported NOTAMs for that airfield.
1 SIGMET reported for the Bordeaux FIR (LFBB) :
 
Embedded thunderstorms
LFBB SIGMET 11 VALID 251400/251600 LFPW
LFBB BORDEAUX FIR/UIR EMBD TS OBS WI N4615 W00015 - N4615 E00030 - N4400 E00115 - N4300 E00000 TOP FL300 MOV E 15KT NC=



MET'MAP, your aeronautical weather chart ! - Copyright ORBIFLY December 2007 - Disclaimer

ORBIFLY MET'MAP TEAM :

Programming & Development : Alexandra Zaïnal
Concept & Development : Baudouin d'Aumeries
Co-Development & Prog : Marc-Olivier Méhu
Technical & hardware support : Manuel Goepfert

Contact : metmap@orbifly.com




SOURCES & CREDITS :

   NOAA